sensor_id;sensor_type;location;lat;lon;timestamp;pressure;altitude;pressure_sealevel;temperature;humidity
58243;BME280;50118;53.232;8.252;2022-09-17T00:00:49;100625.84;;;9.91;100.00
58243;BME280;50118;53.232;8.252;2022-09-17T00:03:16;100615.34;;;9.89;100.00
58243;BME280;50118;53.232;8.252;2022-09-17T00:05:41;100610.72;;;9.91;100.00
58243;BME280;50118;53.232;8.252;2022-09-17T00:08:10;100620.53;;;9.91;100.00
58243;BME280;50118;53.232;8.252;2022-09-17T00:10:38;100620.66;;;9.89;100.00
58243;BME280;50118;53.232;8.252;2022-09-17T00:13:05;100625.28;;;9.87;100.00
58243;BME280;50118;53.232;8.252;2022-09-17T00:15:30;100626.56;;;9.83;100.00
58243;BME280;50118;53.232;8.252;2022-09-17T00:17:56;100622.06;;;9.84;100.00
58243;BME280;50118;53.232;8.252;2022-09-17T00:20:24;100625.44;;;9.86;100.00
58243;BME280;50118;53.232;8.252;2022-09-17T00:22:50;100619.41;;;9.84;100.00
58243;BME280;50118;53.232;8.252;2022-09-17T00:25:16;100625.31;;;9.78;100.00
58243;BME280;50118;53.232;8.252;2022-09-17T00:27:41;100630.19;;;9.82;100.00
58243;BME280;50118;53.232;8.252;2022-09-17T00:30:08;100637.06;;;9.85;100.00
58243;BME280;50118;53.232;8.252;2022-09-17T00:32:33;100636.22;;;9.84;100.00
58243;BME280;50118;53.232;8.252;2022-09-17T00:34:59;100641.69;;;9.73;100.00
58243;BME280;50118;53.232;8.252;2022-09-17T00:37:24;100645.78;;;9.67;100.00
58243;BME280;50118;53.232;8.252;2022-09-17T00:39:49;100648.84;;;9.72;100.00
58243;BME280;50118;53.232;8.252;2022-09-17T00:42:16;100662.56;;;9.78;100.00
58243;BME280;50118;53.232;8.252;2022-09-17T00:53:08;100662.97;;;9.83;100.00
58243;BME280;50118;53.232;8.252;2022-09-17T00:58:14;100655.41;;;9.78;100.00
58243;BME280;50118;53.232;8.252;2022-09-17T01:00:41;100661.41;;;9.80;100.00
58243;BME280;50118;53.232;8.252;2022-09-17T01:03:07;100656.09;;;9.80;100.00
58243;BME280;50118;53.232;8.252;2022-09-17T01:05:45;100650.06;;;9.88;100.00
58243;BME280;50118;53.232;8.252;2022-09-17T01:19:56;100657.66;;;9.73;100.00
58243;BME280;50118;53.232;8.252;2022-09-17T01:33:14;100667.19;;;9.56;100.00
58243;BME280;50118;53.232;8.252;2022-09-17T01:35:53;100671.81;;;9.54;100.00
58243;BME280;50118;53.232;8.252;2022-09-17T01:38:45;100673.19;;;9.58;100.00
58243;BME280;50118;53.232;8.252;2022-09-17T01:44:06;100676.28;;;9.63;100.00
58243;BME280;50118;53.232;8.252;2022-09-17T01:46:50;100678.09;;;9.63;100.00
58243;BME280;50118;53.232;8.252;2022-09-17T01:49:18;100670.13;;;9.63;100.00
58243;BME280;50118;53.232;8.252;2022-09-17T01:51:47;100670.81;;;9.65;100.00
58243;BME280;50118;53.232;8.252;2022-09-17T01:54:21;100674.31;;;9.75;100.00
58243;BME280;50118;53.232;8.252;2022-09-17T02:02:26;100674.03;;;9.68;100.00
58243;BME280;50118;53.232;8.252;2022-09-17T02:05:08;100677.41;;;9.70;100.00
58243;BME280;50118;53.232;8.252;2022-09-17T02:07:40;100667.47;;;9.72;100.00
58243;BME280;50118;53.232;8.252;2022-09-17T02:10:15;100667.03;;;9.67;100.00
58243;BME280;50118;53.232;8.252;2022-09-17T02:12:45;100679.94;;;9.62;100.00
58243;BME280;50118;53.232;8.252;2022-09-17T02:15:21;100676.41;;;9.62;100.00
58243;BME280;50118;53.232;8.252;2022-09-17T02:18:48;100680.91;;;9.61;100.00
58243;BME280;50118;53.232;8.252;2022-09-17T02:21:38;100674.88;;;9.59;100.00
58243;BME280;50118;53.232;8.252;2022-09-17T02:24:15;100675.44;;;9.63;100.00
58243;BME280;50118;53.232;8.252;2022-09-17T02:26:45;100672.38;;;9.67;100.00
58243;BME280;50118;53.232;8.252;2022-09-17T02:29:19;100678.25;;;9.61;100.00
58243;BME280;50118;53.232;8.252;2022-09-17T02:31:47;100677.28;;;9.62;100.00
58243;BME280;50118;53.232;8.252;2022-09-17T02:34:13;100684.09;;;9.55;100.00
58243;BME280;50118;53.232;8.252;2022-09-17T02:36:38;100685.78;;;9.46;100.00
58243;BME280;50118;53.232;8.252;2022-09-17T02:39:04;100693.63;;;9.48;100.00
58243;BME280;50118;53.232;8.252;2022-09-17T02:41:46;100692.66;;;9.49;100.00
58243;BME280;50118;53.232;8.252;2022-09-17T02:52:33;100698.94;;;9.48;100.00
58243;BME280;50118;53.232;8.252;2022-09-17T02:55:17;100704.84;;;9.42;100.00
58243;BME280;50118;53.232;8.252;2022-09-17T02:58:03;100690.28;;;9.46;100.00
58243;BME280;50118;53.232;8.252;2022-09-17T03:00:30;100701.19;;;9.52;100.00
58243;BME280;50118;53.232;8.252;2022-09-17T03:05:33;100695.03;;;9.42;100.00
58243;BME280;50118;53.232;8.252;2022-09-17T03:08:00;100699.09;;;9.37;100.00
58243;BME280;50118;53.232;8.252;2022-09-17T03:10:26;100692.22;;;9.44;100.00
58243;BME280;50118;53.232;8.252;2022-09-17T03:12:58;100693.75;;;9.46;100.00
58243;BME280;50118;53.232;8.252;2022-09-17T03:15:24;100686.66;;;9.47;100.00
58243;BME280;50118;53.232;8.252;2022-09-17T03:17:49;100695.31;;;9.39;100.00
58243;BME280;50118;53.232;8.252;2022-09-17T03:20:14;100691.69;;;9.40;100.00
58243;BME280;50118;53.232;8.252;2022-09-17T03:22:40;100695.84;;;9.43;100.00
58243;BME280;50118;53.232;8.252;2022-09-17T03:25:06;100685.78;;;9.46;100.00
58243;BME280;50118;53.232;8.252;2022-09-17T03:27:32;100695.59;;;9.46;100.00
58243;BME280;50118;53.232;8.252;2022-09-17T03:29:57;100689.16;;;9.39;100.00
58243;BME280;50118;53.232;8.252;2022-09-17T03:32:23;100687.19;;;9.41;100.00
58243;BME280;50118;53.232;8.252;2022-09-17T03:34:49;100700.06;;;9.35;100.00
58243;BME280;50118;53.232;8.252;2022-09-17T03:37:14;100694.88;;;9.34;100.00
58243;BME280;50118;53.232;8.252;2022-09-17T03:39:40;100703.97;;;9.31;100.00
58243;BME280;50118;53.232;8.252;2022-09-17T03:42:05;100693.34;;;9.31;100.00
58243;BME280;50118;53.232;8.252;2022-09-17T03:44:30;100691.94;;;9.27;100.00
58243;BME280;50118;53.232;8.252;2022-09-17T03:46:56;100695.59;;;9.26;100.00
58243;BME280;50118;53.232;8.252;2022-09-17T03:49:21;100695.16;;;9.21;100.00
58243;BME280;50118;53.232;8.252;2022-09-17T03:51:48;100685.72;;;9.07;100.00
58243;BME280;50118;53.232;8.252;2022-09-17T03:54:13;100685.47;;;9.10;100.00
58243;BME280;50118;53.232;8.252;2022-09-17T03:56:39;100680.97;;;9.01;100.00
58243;BME280;50118;53.232;8.252;2022-09-17T03:59:04;100685.44;;;8.91;100.00
58243;BME280;50118;53.232;8.252;2022-09-17T04:01:29;100679.00;;;8.84;100.00
58243;BME280;50118;53.232;8.252;2022-09-17T04:03:55;100683.00;;;8.78;100.00
58243;BME280;50118;53.232;8.252;2022-09-17T04:06:20;100687.19;;;8.71;100.00
58243;BME280;50118;53.232;8.252;2022-09-17T04:08:46;100699.88;;;8.67;100.00
58243;BME280;50118;53.232;8.252;2022-09-17T04:11:11;100690.34;;;8.65;100.00
58243;BME280;50118;53.232;8.252;2022-09-17T04:13:37;100682.81;;;8.60;100.00
58243;BME280;50118;53.232;8.252;2022-09-17T04:16:03;100687.25;;;8.59;100.00
58243;BME280;50118;53.232;8.252;2022-09-17T04:18:29;100689.78;;;8.51;100.00
58243;BME280;50118;53.232;8.252;2022-09-17T04:20:55;100684.72;;;8.48;100.00
58243;BME280;50118;53.232;8.252;2022-09-17T04:23:21;100688.81;;;8.41;100.00
58243;BME280;50118;53.232;8.252;2022-09-17T04:25:46;100684.91;;;8.35;100.00
58243;BME280;50118;53.232;8.252;2022-09-17T04:28:11;100690.78;;;8.39;100.00
58243;BME280;50118;53.232;8.252;2022-09-17T04:30:37;100699.00;;;8.36;100.00
58243;BME280;50118;53.232;8.252;2022-09-17T04:33:03;100713.38;;;8.33;100.00
58243;BME280;50118;53.232;8.252;2022-09-17T04:35:29;100714.63;;;8.29;100.00
58243;BME280;50118;53.232;8.252;2022-09-17T04:37:55;100718.13;;;8.30;100.00
58243;BME280;50118;53.232;8.252;2022-09-17T04:40:22;100702.78;;;8.33;100.00
58243;BME280;50118;53.232;8.252;2022-09-17T04:42:54;100711.69;;;8.32;100.00
58243;BME280;50118;53.232;8.252;2022-09-17T04:45:21;100709.16;;;8.31;100.00
58243;BME280;50118;53.232;8.252;2022-09-17T04:47:46;100704.03;;;8.29;100.00
58243;BME280;50118;53.232;8.252;2022-09-17T04:50:12;100698.56;;;8.31;100.00
58243;BME280;50118;53.232;8.252;2022-09-17T04:52:41;100705.09;;;8.27;100.00
58243;BME280;50118;53.232;8.252;2022-09-17T04:55:07;100701.88;;;8.23;100.00
58243;BME280;50118;53.232;8.252;2022-09-17T04:57:33;100704.66;;;8.21;100.00
58243;BME280;50118;53.232;8.252;2022-09-17T04:59:59;100696.25;;;8.16;100.00
58243;BME280;50118;53.232;8.252;2022-09-17T05:02:24;100706.66;;;8.08;100.00
58243;BME280;50118;53.232;8.252;2022-09-17T05:04:49;100701.03;;;8.01;100.00
58243;BME280;50118;53.232;8.252;2022-09-17T05:07:15;100705.31;;;7.93;100.00
58243;BME280;50118;53.232;8.252;2022-09-17T05:09:40;100711.97;;;7.87;100.00
58243;BME280;50118;53.232;8.252;2022-09-17T05:12:06;100702.44;;;7.84;100.00
58243;BME280;50118;53.232;8.252;2022-09-17T05:14:31;100709.38;;;7.76;100.00
58243;BME280;50118;53.232;8.252;2022-09-17T05:16:56;100716.25;;;7.78;100.00
58243;BME280;50118;53.232;8.252;2022-09-17T05:19:22;100715.03;;;7.71;100.00
58243;BME280;50118;53.232;8.252;2022-09-17T05:21:47;100715.31;;;7.68;100.00
58243;BME280;50118;53.232;8.252;2022-09-17T05:24:13;100720.75;;;7.66;100.00
58243;BME280;50118;53.232;8.252;2022-09-17T05:26:38;100728.81;;;7.65;100.00
58243;BME280;50118;53.232;8.252;2022-09-17T05:29:04;100740.06;;;7.57;100.00
58243;BME280;50118;53.232;8.252;2022-09-17T05:31:30;100734.88;;;7.56;100.00
58243;BME280;50118;53.232;8.252;2022-09-17T05:33:57;100736.06;;;7.63;100.00
58243;BME280;50118;53.232;8.252;2022-09-17T05:36:22;100741.03;;;7.56;100.00
58243;BME280;50118;53.232;8.252;2022-09-17T05:38:48;100739.94;;;7.59;100.00
58243;BME280;50118;53.232;8.252;2022-09-17T05:41:13;100740.38;;;7.64;100.00
58243;BME280;50118;53.232;8.252;2022-09-17T05:43:38;100734.16;;;7.54;100.00
58243;BME280;50118;53.232;8.252;2022-09-17T05:46:04;100732.31;;;7.65;100.00
58243;BME280;50118;53.232;8.252;2022-09-17T05:48:30;100736.91;;;7.63;100.00
58243;BME280;50118;53.232;8.252;2022-09-17T05:50:56;100730.81;;;7.73;100.00
58243;BME280;50118;53.232;8.252;2022-09-17T05:53:22;100726.72;;;7.80;100.00
58243;BME280;50118;53.232;8.252;2022-09-17T05:55:48;100722.84;;;7.84;100.00
58243;BME280;50118;53.232;8.252;2022-09-17T05:58:15;100723.16;;;7.91;100.00
58243;BME280;50118;53.232;8.252;2022-09-17T06:00:41;100715.16;;;8.02;100.00
58243;BME280;50118;53.232;8.252;2022-09-17T06:03:11;100712.44;;;8.13;100.00
58243;BME280;50118;53.232;8.252;2022-09-17T06:05:37;100715.03;;;8.25;100.00
58243;BME280;50118;53.232;8.252;2022-09-17T06:08:03;100726.28;;;8.38;100.00
58243;BME280;50118;53.232;8.252;2022-09-17T06:10:29;100722.31;;;8.32;100.00
58243;BME280;50118;53.232;8.252;2022-09-17T06:12:58;100726.09;;;8.30;100.00
58243;BME280;50118;53.232;8.252;2022-09-17T06:15:25;100718.31;;;8.38;100.00
58243;BME280;50118;53.232;8.252;2022-09-17T06:17:51;100729.13;;;8.46;100.00
58243;BME280;50118;53.232;8.252;2022-09-17T06:20:17;100715.72;;;8.48;100.00
58243;BME280;50118;53.232;8.252;2022-09-17T06:22:43;100717.97;;;8.52;100.00
58243;BME280;50118;53.232;8.252;2022-09-17T06:25:08;100723.59;;;8.59;100.00
58243;BME280;50118;53.232;8.252;2022-09-17T06:27:34;100715.50;;;8.60;100.00
58243;BME280;50118;53.232;8.252;2022-09-17T06:30:01;100730.19;;;8.65;100.00
58243;BME280;50118;53.232;8.252;2022-09-17T06:32:27;100724.19;;;8.63;100.00
58243;BME280;50118;53.232;8.252;2022-09-17T06:34:53;100714.69;;;8.60;100.00
58243;BME280;50118;53.232;8.252;2022-09-17T06:37:20;100715.50;;;8.60;100.00
58243;BME280;50118;53.232;8.252;2022-09-17T06:39:51;100722.84;;;8.78;100.00
58243;BME280;50118;53.232;8.252;2022-09-17T06:42:16;100720.88;;;8.80;100.00
58243;BME280;50118;53.232;8.252;2022-09-17T06:44:41;100723.97;;;8.85;100.00
58243;BME280;50118;53.232;8.252;2022-09-17T06:47:07;100726.81;;;8.93;100.00
58243;BME280;50118;53.232;8.252;2022-09-17T06:49:32;100729.63;;;9.02;100.00
58243;BME280;50118;53.232;8.252;2022-09-17T06:51:58;100727.94;;;9.01;100.00
58243;BME280;50118;53.232;8.252;2022-09-17T06:54:23;100731.47;;;9.01;100.00
58243;BME280;50118;53.232;8.252;2022-09-17T06:56:48;100734.59;;;9.16;100.00
58243;BME280;50118;53.232;8.252;2022-09-17T06:59:14;100732.22;;;9.32;100.00
58243;BME280;50118;53.232;8.252;2022-09-17T07:01:39;100745.41;;;9.44;100.00
58243;BME280;50118;53.232;8.252;2022-09-17T07:04:05;100742.47;;;9.57;100.00
58243;BME280;50118;53.232;8.252;2022-09-17T07:06:30;100742.91;;;9.81;100.00
58243;BME280;50118;53.232;8.252;2022-09-17T07:08:57;100743.16;;;10.17;100.00
58243;BME280;50118;53.232;8.252;2022-09-17T07:11:22;100747.91;;;10.33;100.00
58243;BME280;50118;53.232;8.252;2022-09-17T07:13:48;100740.81;;;10.71;100.00
58243;BME280;50118;53.232;8.252;2022-09-17T07:16:13;100753.53;;;10.77;100.00
58243;BME280;50118;53.232;8.252;2022-09-17T07:18:38;100738.97;;;11.09;100.00
58243;BME280;50118;53.232;8.252;2022-09-17T07:21:05;100748.25;;;11.05;100.00
58243;BME280;50118;53.232;8.252;2022-09-17T07:23:33;100746.16;;;11.27;100.00
58243;BME280;50118;53.232;8.252;2022-09-17T07:26:19;100746.16;;;11.27;100.00
58243;BME280;50118;53.232;8.252;2022-09-17T07:28:45;100737.63;;;11.23;100.00
58243;BME280;50118;53.232;8.252;2022-09-17T07:31:11;100740.28;;;11.23;100.00
58243;BME280;50118;53.232;8.252;2022-09-17T07:33:38;100739.75;;;11.19;100.00
58243;BME280;50118;53.232;8.252;2022-09-17T07:36:06;100738.38;;;11.15;100.00
58243;BME280;50118;53.232;8.252;2022-09-17T07:38:32;100728.06;;;11.48;100.00
58243;BME280;50118;53.232;8.252;2022-09-17T07:41:01;100738.19;;;11.63;100.00
58243;BME280;50118;53.232;8.252;2022-09-17T07:43:29;100741.69;;;11.45;100.00
58243;BME280;50118;53.232;8.252;2022-09-17T07:45:59;100742.59;;;11.54;100.00
58243;BME280;50118;53.232;8.252;2022-09-17T07:48:26;100737.50;;;11.61;100.00
58243;BME280;50118;53.232;8.252;2022-09-17T07:51:03;100748.22;;;11.33;100.00
58243;BME280;50118;53.232;8.252;2022-09-17T07:53:38;100746.03;;;11.46;100.00
58243;BME280;50118;53.232;8.252;2022-09-17T07:56:30;100744.34;;;11.45;100.00
58243;BME280;50118;53.232;8.252;2022-09-17T07:59:02;100751.56;;;11.35;100.00
58243;BME280;50118;53.232;8.252;2022-09-17T08:04:41;100747.59;;;11.21;100.00
58243;BME280;50118;53.232;8.252;2022-09-17T08:07:10;100752.88;;;11.31;100.00
58243;BME280;50118;53.232;8.252;2022-09-17T08:10:03;100747.31;;;11.24;100.00
58243;BME280;50118;53.232;8.252;2022-09-17T08:12:32;100752.94;;;11.21;100.00
58243;BME280;50118;53.232;8.252;2022-09-17T08:14:57;100739.78;;;11.10;100.00
58243;BME280;50118;53.232;8.252;2022-09-17T08:17:23;100739.75;;;11.19;99.40
58243;BME280;50118;53.232;8.252;2022-09-17T08:19:48;100730.88;;;11.47;100.00
58243;BME280;50118;53.232;8.252;2022-09-17T08:22:28;100745.66;;;11.59;100.00
58243;BME280;50118;53.232;8.252;2022-09-17T08:24:59;100734.63;;;11.72;100.00
58243;BME280;50118;53.232;8.252;2022-09-17T08:27:45;100728.22;;;12.01;98.84
58243;BME280;50118;53.232;8.252;2022-09-17T08:30:20;100729.81;;;12.38;99.39
58243;BME280;50118;53.232;8.252;2022-09-17T08:33:06;100736.94;;;12.55;95.04
58243;BME280;50118;53.232;8.252;2022-09-17T08:35:31;100751.09;;;11.85;93.53
58243;BME280;50118;53.232;8.252;2022-09-17T08:37:59;100746.28;;;11.71;100.00
58243;BME280;50118;53.232;8.252;2022-09-17T08:40:35;100755.22;;;11.34;100.00
58243;BME280;50118;53.232;8.252;2022-09-17T08:43:10;100777.72;;;11.03;100.00
58243;BME280;50118;53.232;8.252;2022-09-17T08:45:40;100773.88;;;10.78;100.00
58243;BME280;50118;53.232;8.252;2022-09-17T08:48:11;100746.09;;;10.81;100.00
58243;BME280;50118;53.232;8.252;2022-09-17T08:50:39;100752.44;;;10.70;100.00
58243;BME280;50118;53.232;8.252;2022-09-17T09:06:23;100777.91;;;9.86;100.00
58243;BME280;50118;53.232;8.252;2022-09-17T09:09:13;100800.88;;;9.68;100.00
58243;BME280;50118;53.232;8.252;2022-09-17T09:11:41;100799.97;;;9.48;100.00
58243;BME280;50118;53.232;8.252;2022-09-17T09:14:12;100802.78;;;9.37;100.00
58243;BME280;50118;53.232;8.252;2022-09-17T09:16:41;100805.09;;;9.20;100.00
58243;BME280;50118;53.232;8.252;2022-09-17T09:19:24;100780.19;;;9.21;100.00
58243;BME280;50118;53.232;8.252;2022-09-17T09:22:01;100780.91;;;9.23;100.00
58243;BME280;50118;53.232;8.252;2022-09-17T09:27:32;100777.59;;;9.41;100.00
58243;BME280;50118;53.232;8.252;2022-09-17T09:30:12;100783.72;;;9.31;100.00
58243;BME280;50118;53.232;8.252;2022-09-17T09:32:59;100782.88;;;9.31;100.00
58243;BME280;50118;53.232;8.252;2022-09-17T09:35:30;100790.44;;;9.35;100.00
58243;BME280;50118;53.232;8.252;2022-09-17T09:40:49;100802.44;;;9.20;100.00
58243;BME280;50118;53.232;8.252;2022-09-17T09:43:21;100822.31;;;9.26;100.00
58243;BME280;50118;53.232;8.252;2022-09-17T09:54:40;100801.63;;;8.68;100.00
58243;BME280;50118;53.232;8.252;2022-09-17T09:57:15;100777.28;;;8.63;100.00
58243;BME280;50118;53.232;8.252;2022-09-17T09:59:41;100785.44;;;8.71;100.00
58243;BME280;50118;53.232;8.252;2022-09-17T10:02:07;100778.22;;;8.83;100.00
58243;BME280;50118;53.232;8.252;2022-09-17T10:04:33;100755.38;;;9.01;100.00
58243;BME280;50118;53.232;8.252;2022-09-17T10:07:11;100754.50;;;9.31;100.00
58243;BME280;50118;53.232;8.252;2022-09-17T10:09:37;100751.41;;;9.46;100.00
58243;BME280;50118;53.232;8.252;2022-09-17T10:14:44;100775.31;;;9.36;100.00
58243;BME280;50118;53.232;8.252;2022-09-17T10:17:23;100770.72;;;9.48;100.00
58243;BME280;50118;53.232;8.252;2022-09-17T10:20:12;100765.59;;;9.66;100.00
58243;BME280;50118;53.232;8.252;2022-09-17T10:22:39;100762.09;;;9.75;100.00
58243;BME280;50118;53.232;8.252;2022-09-17T10:25:28;100767.97;;;9.79;100.00
58243;BME280;50118;53.232;8.252;2022-09-17T10:27:55;100766.56;;;9.75;100.00
58243;BME280;50118;53.232;8.252;2022-09-17T10:30:22;100754.66;;;9.79;100.00
58243;BME280;50118;53.232;8.252;2022-09-17T10:35:36;100764.22;;;9.91;100.00
58243;BME280;50118;53.232;8.252;2022-09-17T10:38:02;100787.72;;;9.76;100.00
58243;BME280;50118;53.232;8.252;2022-09-17T10:40:29;100790.81;;;9.91;100.00
58243;BME280;50118;53.232;8.252;2022-09-17T10:45:38;100767.25;;;9.47;100.00
58243;BME280;50118;53.232;8.252;2022-09-17T10:48:04;100771.56;;;9.39;100.00
58243;BME280;50118;53.232;8.252;2022-09-17T10:50:39;100762.19;;;9.44;100.00
58243;BME280;50118;53.232;8.252;2022-09-17T10:53:06;100752.38;;;9.45;100.00
58243;BME280;50118;53.232;8.252;2022-09-17T10:55:57;100745.41;;;9.63;100.00
58243;BME280;50118;53.232;8.252;2022-09-17T11:18:24;100753.19;;;9.16;100.00
58243;BME280;50118;53.232;8.252;2022-09-17T11:26:31;100761.09;;;9.47;100.00
58243;BME280;50118;53.232;8.252;2022-09-17T11:34:41;100753.53;;;9.52;100.00
58243;BME280;50118;53.232;8.252;2022-09-17T11:37:15;100747.66;;;9.68;100.00
58243;BME280;50118;53.232;8.252;2022-09-17T11:39:52;100744.03;;;9.79;100.00
58243;BME280;50118;53.232;8.252;2022-09-17T11:42:23;100745.72;;;9.80;100.00
58243;BME280;50118;53.232;8.252;2022-09-17T11:45:18;100743.75;;;10.01;100.00
58243;BME280;50118;53.232;8.252;2022-09-17T11:47:52;100737.28;;;10.14;100.00
58243;BME280;50118;53.232;8.252;2022-09-17T11:50:27;100739.94;;;10.14;100.00
58243;BME280;50118;53.232;8.252;2022-09-17T11:53:18;100743.16;;;10.07;100.00
58243;BME280;50118;53.232;8.252;2022-09-17T11:56:37;100747.25;;;10.12;100.00
58243;BME280;50118;53.232;8.252;2022-09-17T12:01:43;100742.00;;;10.29;100.00
58243;BME280;50118;53.232;8.252;2022-09-17T12:07:26;100720.44;;;10.42;100.00
58243;BME280;50118;53.232;8.252;2022-09-17T12:13:01;100714.19;;;10.71;100.00
58243;BME280;50118;53.232;8.252;2022-09-17T12:15:29;100721.53;;;10.87;100.00
58243;BME280;50118;53.232;8.252;2022-09-17T12:20:31;100723.19;;;10.60;100.00
58243;BME280;50118;53.232;8.252;2022-09-17T12:23:02;100728.75;;;10.67;100.00
58243;BME280;50118;53.232;8.252;2022-09-17T12:25:37;100743.03;;;10.76;100.00
58243;BME280;50118;53.232;8.252;2022-09-17T12:28:16;100730.03;;;11.00;100.00
58243;BME280;50118;53.232;8.252;2022-09-17T12:30:55;100721.13;;;11.37;100.00
58243;BME280;50118;53.232;8.252;2022-09-17T12:33:36;100711.97;;;11.76;100.00
58243;BME280;50118;53.232;8.252;2022-09-17T12:45:16;100700.06;;;13.01;100.00
58243;BME280;50118;53.232;8.252;2022-09-17T12:57:00;100721.59;;;12.57;100.00
58243;BME280;50118;53.232;8.252;2022-09-17T13:00:11;100716.69;;;12.00;100.00
58243;BME280;50118;53.232;8.252;2022-09-17T13:14:22;100710.16;;;11.94;100.00
58243;BME280;50118;53.232;8.252;2022-09-17T13:17:17;100698.22;;;12.07;100.00
58243;BME280;50118;53.232;8.252;2022-09-17T13:20:15;100687.78;;;12.48;100.00
58243;BME280;50118;53.232;8.252;2022-09-17T13:25:59;100693.69;;;12.25;100.00
58243;BME280;50118;53.232;8.252;2022-09-17T13:28:46;100695.16;;;12.20;100.00
58243;BME280;50118;53.232;8.252;2022-09-17T13:31:19;100694.31;;;12.19;100.00
58243;BME280;50118;53.232;8.252;2022-09-17T13:33:58;100710.69;;;11.80;100.00
58243;BME280;50118;53.232;8.252;2022-09-17T13:36:47;100719.97;;;11.76;100.00
58243;BME280;50118;53.232;8.252;2022-09-17T13:44:41;100742.41;;;10.92;100.00
58243;BME280;50118;53.232;8.252;2022-09-17T13:47:12;100743.28;;;10.82;100.00
58243;BME280;50118;53.232;8.252;2022-09-17T13:50:08;100752.56;;;10.78;100.00
58243;BME280;50118;53.232;8.252;2022-09-17T13:52:46;100737.75;;;10.66;100.00
58243;BME280;50118;53.232;8.252;2022-09-17T13:58:22;100734.56;;;10.53;100.00
58243;BME280;50118;53.232;8.252;2022-09-17T14:05:53;100732.44;;;10.66;100.00
58243;BME280;50118;53.232;8.252;2022-09-17T14:10:52;100734.22;;;11.03;100.00
58243;BME280;50118;53.232;8.252;2022-09-17T14:16:00;100731.22;;;11.34;100.00
58243;BME280;50118;53.232;8.252;2022-09-17T14:21:04;100736.06;;;11.48;100.00
58243;BME280;50118;53.232;8.252;2022-09-17T14:23:34;100735.28;;;11.56;100.00
58243;BME280;50118;53.232;8.252;2022-09-17T14:26:11;100733.00;;;11.43;100.00
58243;BME280;50118;53.232;8.252;2022-09-17T14:28:43;100734.84;;;11.43;100.00
58243;BME280;50118;53.232;8.252;2022-09-17T14:31:26;100748.03;;;11.44;100.00
58243;BME280;50118;53.232;8.252;2022-09-17T14:33:54;100746.34;;;11.43;100.00
58243;BME280;50118;53.232;8.252;2022-09-17T14:36:20;100750.22;;;11.31;100.00
58243;BME280;50118;53.232;8.252;2022-09-17T14:38:48;100768.47;;;10.98;100.00
58243;BME280;50118;53.232;8.252;2022-09-17T14:41:24;100759.34;;;10.63;100.00
58243;BME280;50118;53.232;8.252;2022-09-17T14:46:54;100759.09;;;10.56;100.00
58243;BME280;50118;53.232;8.252;2022-09-17T14:49:28;100762.16;;;10.61;100.00
58243;BME280;50118;53.232;8.252;2022-09-17T14:51:56;100760.31;;;10.62;100.00
58243;BME280;50118;53.232;8.252;2022-09-17T14:54:25;100756.44;;;10.56;100.00
58243;BME280;50118;53.232;8.252;2022-09-17T14:59:41;100762.00;;;10.63;100.00
58243;BME280;50118;53.232;8.252;2022-09-17T15:04:54;100776.72;;;10.67;100.00
58243;BME280;50118;53.232;8.252;2022-09-17T15:07:21;100764.69;;;10.63;100.00
58243;BME280;50118;53.232;8.252;2022-09-17T15:09:47;100775.06;;;10.66;100.00
58243;BME280;50118;53.232;8.252;2022-09-17T15:12:16;100775.22;;;10.55;100.00
58243;BME280;50118;53.232;8.252;2022-09-17T15:14:45;100775.38;;;10.43;100.00
58243;BME280;50118;53.232;8.252;2022-09-17T15:17:14;100770.63;;;10.37;100.00
58243;BME280;50118;53.232;8.252;2022-09-17T15:19:43;100770.75;;;10.45;100.00
58243;BME280;50118;53.232;8.252;2022-09-17T15:22:20;100770.56;;;10.57;100.00
58243;BME280;50118;53.232;8.252;2022-09-17T15:24:59;100770.56;;;10.57;100.00
58243;BME280;50118;53.232;8.252;2022-09-17T15:27:28;100773.66;;;10.62;100.00
58243;BME280;50118;53.232;8.252;2022-09-17T15:30:05;100766.88;;;10.77;100.00
58243;BME280;50118;53.232;8.252;2022-09-17T15:32:34;100779.31;;;10.87;100.00
58243;BME280;50118;53.232;8.252;2022-09-17T15:37:52;100768.69;;;11.14;100.00
58243;BME280;50118;53.232;8.252;2022-09-17T15:45:47;100797.53;;;10.91;100.00
58243;BME280;50118;53.232;8.252;2022-09-17T15:50:55;100789.31;;;10.75;100.00
58243;BME280;50118;53.232;8.252;2022-09-17T15:53:23;100785.19;;;10.53;100.00
58243;BME280;50118;53.232;8.252;2022-09-17T16:08:48;100791.38;;;10.34;100.00
58243;BME280;50118;53.232;8.252;2022-09-17T16:11:18;100789.97;;;10.39;100.00
58243;BME280;50118;53.232;8.252;2022-09-17T16:13:48;100784.88;;;10.26;100.00
58243;BME280;50118;53.232;8.252;2022-09-17T16:16:16;100790.66;;;10.22;100.00
58243;BME280;50118;53.232;8.252;2022-09-17T16:18:42;100792.34;;;10.33;100.00
58243;BME280;50118;53.232;8.252;2022-09-17T16:21:17;100791.94;;;10.37;100.00
58243;BME280;50118;53.232;8.252;2022-09-17T16:23:43;100780.28;;;10.38;100.00
58243;BME280;50118;53.232;8.252;2022-09-17T16:26:14;100786.88;;;10.44;100.00
58243;BME280;50118;53.232;8.252;2022-09-17T16:28:41;100787.69;;;10.54;100.00
58243;BME280;50118;53.232;8.252;2022-09-17T16:31:11;100788.38;;;10.56;100.00
58243;BME280;50118;53.232;8.252;2022-09-17T16:33:37;100795.50;;;10.65;100.00
58243;BME280;50118;53.232;8.252;2022-09-17T16:36:03;100790.72;;;10.69;100.00
58243;BME280;50118;53.232;8.252;2022-09-17T16:38:29;100797.19;;;10.67;100.00
58243;BME280;50118;53.232;8.252;2022-09-17T16:41:15;100798.56;;;10.80;100.00
58243;BME280;50118;53.232;8.252;2022-09-17T16:43:40;100805.56;;;10.81;100.00